Terminal Aerodrome Forecast
Issued by NWS Grand Forks, ND

Home | Current Version | Previous Version | Graphics & Text | Print | Product List | Glossary On
Versions: 1 2 3 4 5 6 7 8 9 10 11 12
000
FTUS43 KFGF 162340
TAFGFK
TAF
KGFK 162340Z 1700/1724 VRB03KT P6SM FEW200
     FM171500 21007KT P6SM FEW150
     FM171800 19011KT P6SM SCT090
     FM172300 19014KT P6SM SCT140=

USA.gov is the U.S. government's official web portal to all federal, state and local government web resources and services.